createdAt,value
2018-12-20T00:02:22.087Z,98664.62
2018-12-20T00:04:49.294Z,98659.36
2018-12-20T00:07:16.604Z,98655.09
2018-12-20T00:09:43.917Z,98664.05
2018-12-20T00:12:11.071Z,98662.77
2018-12-20T00:14:38.255Z,98656.45
2018-12-20T00:17:11.799Z,98656.45
2018-12-20T00:19:38.893Z,98650.11
2018-12-20T00:22:06.502Z,98662.20
2018-12-20T00:24:33.662Z,98658.56
2018-12-20T00:27:01.410Z,98657.53
2018-12-20T00:29:28.744Z,98654.91
2018-12-20T00:31:55.951Z,98659.39
2018-12-20T00:34:23.360Z,98654.67
2018-12-20T00:36:50.437Z,98640.11
2018-12-20T00:39:18.460Z,98662.34
2018-12-20T00:41:45.576Z,98661.02
2018-12-20T00:44:12.752Z,98654.14
2018-12-20T00:46:40.665Z,98649.86
2018-12-20T00:49:07.816Z,98647.22
2018-12-20T00:51:35.064Z,98644.55
2018-12-20T00:54:02.481Z,98639.56
2018-12-20T00:56:29.566Z,98648.25
2018-12-20T00:58:56.728Z,98645.65
2018-12-20T01:01:23.874Z,98647.27
2018-12-20T01:03:52.173Z,98644.89
2018-12-20T01:06:19.275Z,98648.02
2018-12-20T01:08:47.397Z,98655.15
2018-12-20T01:11:15.151Z,98659.39
2018-12-20T01:13:42.277Z,98662.03
2018-12-20T01:16:09.440Z,98668.64
2018-12-20T01:18:36.710Z,98667.09
2018-12-20T01:21:03.921Z,98666.82
2018-12-20T01:23:31.993Z,98679.19
2018-12-20T01:25:59.170Z,98675.97
2018-12-20T01:28:26.324Z,98677.05
2018-12-20T01:30:53.617Z,98681.30
2018-12-20T01:33:20.860Z,98687.88
2018-12-20T01:35:48.029Z,98690.73
2018-12-20T01:38:15.223Z,98689.91
2018-12-20T01:40:42.370Z,98687.27
2018-12-20T01:43:09.655Z,98692.55
2018-12-20T01:45:36.998Z,98686.50
2018-12-20T01:48:04.286Z,98695.44
2018-12-20T01:50:31.469Z,98688.36
2018-12-20T01:52:58.622Z,98688.09
2018-12-20T01:55:26.543Z,98692.02
2018-12-20T01:57:53.647Z,98697.29
2018-12-20T02:00:21.210Z,98693.39
2018-12-20T02:02:48.477Z,98690.19
2018-12-20T02:05:15.843Z,98693.61
2018-12-20T02:07:42.951Z,98651.34
2018-12-20T02:10:10.307Z,98686.50
2018-12-20T02:12:37.605Z,98690.47
2018-12-20T02:15:05.546Z,98684.44
2018-12-20T02:17:32.727Z,98684.95
2018-12-20T02:19:59.826Z,98684.17
2018-12-20T02:22:26.904Z,98678.93
2018-12-20T02:24:54.115Z,98673.14
2018-12-20T02:27:21.277Z,98675.19
2018-12-20T02:29:48.464Z,98675.44
2018-12-20T02:32:15.649Z,98676.72
2018-12-20T02:34:42.728Z,98670.67
2018-12-20T02:37:09.994Z,98681.95
2018-12-20T02:39:37.161Z,98680.63
2018-12-20T02:42:04.273Z,98679.30
2018-12-20T02:44:31.610Z,98670.64
2018-12-20T02:46:59.357Z,98675.09
2018-12-20T02:49:26.681Z,98676.68
2018-12-20T02:51:53.959Z,98667.97
2018-12-20T02:54:21.056Z,98670.88
2018-12-20T02:56:48.370Z,98665.10
2018-12-20T02:59:15.823Z,98674.36
2018-12-20T03:01:43.118Z,98668.50
2018-12-20T03:04:10.382Z,98664.75
2018-12-20T03:06:37.755Z,98659.67
2018-12-20T03:09:07.209Z,98667.33
2018-12-20T03:11:34.556Z,98669.70
2018-12-20T03:14:02.054Z,98668.45
2018-12-20T03:16:29.569Z,98671.62
2018-12-20T03:18:56.669Z,98673.00
2018-12-20T03:21:23.951Z,98663.13
2018-12-20T03:23:51.211Z,98669.41
2018-12-20T03:26:18.422Z,98663.66
2018-12-20T03:28:45.647Z,98668.63
2018-12-20T03:31:12.757Z,98662.10
2018-12-20T03:33:40.540Z,98662.95
2018-12-20T03:36:07.968Z,98663.73
2018-12-20T03:38:35.386Z,98669.56
2018-12-20T03:41:02.497Z,98666.34
2018-12-20T03:43:29.662Z,98671.56
2018-12-20T03:45:57.012Z,98671.77
2018-12-20T03:48:24.298Z,98668.64
2018-12-20T03:50:51.540Z,98666.75
2018-12-20T03:53:18.755Z,98671.84
2018-12-20T03:55:45.954Z,98668.38
2018-12-20T03:58:13.151Z,98674.46
2018-12-20T04:00:40.767Z,98668.70
2018-12-20T04:03:08.471Z,98671.64
2018-12-20T04:05:36.217Z,98673.39
2018-12-20T04:08:04.301Z,98670.77
2018-12-20T04:10:33.102Z,98666.02
2018-12-20T04:13:00.848Z,98670.52
2018-12-20T04:15:28.104Z,98674.28
2018-12-20T04:17:55.297Z,98677.69
2018-12-20T04:20:22.602Z,98683.47
2018-12-20T04:22:50.038Z,98675.50
2018-12-20T04:25:17.233Z,98684.48
2018-12-20T04:27:44.372Z,98681.85
2018-12-20T04:30:12.071Z,98674.95
2018-12-20T04:32:39.757Z,98677.09
2018-12-20T04:35:07.646Z,98677.50
2018-12-20T04:37:34.896Z,98677.20
2018-12-20T04:40:02.336Z,98680.45
2018-12-20T04:42:29.748Z,98681.77
2018-12-20T04:44:56.840Z,98688.35
2018-12-20T04:47:24.137Z,98692.55
2018-12-20T04:49:51.387Z,98685.73
2018-12-20T04:52:18.683Z,98691.28
2018-12-20T04:54:46.018Z,98691.84
2018-12-20T04:57:13.346Z,98689.20
2018-12-20T04:59:41.380Z,98696.01
2018-12-20T05:02:09.420Z,98694.20
2018-12-20T05:04:36.657Z,98689.14
2018-12-20T05:07:03.848Z,98694.35
2018-12-20T05:09:31.132Z,98694.36
2018-12-20T05:11:58.491Z,98694.16
2018-12-20T05:14:26.454Z,98698.88
2018-12-20T05:16:53.874Z,98702.05
2018-12-20T05:19:21.244Z,98701.50
2018-12-20T05:21:48.433Z,98708.61
2018-12-20T05:24:15.533Z,98602.53
2018-12-20T05:26:43.440Z,98705.42
2018-12-20T05:29:10.628Z,98720.13
2018-12-20T05:31:37.770Z,98726.19
2018-12-20T05:34:05.052Z,98728.34
2018-12-20T05:36:32.238Z,98734.31
2018-12-20T05:38:59.544Z,98732.98
2018-12-20T05:41:27.001Z,98740.88
2018-12-20T05:43:54.906Z,98744.87
2018-12-20T05:46:22.052Z,98748.81
2018-12-20T05:48:49.166Z,98754.61
2018-12-20T05:51:16.574Z,98748.58
2018-12-20T05:53:43.986Z,98759.39
2018-12-20T05:56:12.141Z,98755.98
2018-12-20T05:58:39.288Z,98764.11
2018-12-20T06:01:06.373Z,98760.86
2018-12-20T06:03:33.807Z,98763.44
2018-12-20T06:06:01.179Z,98771.67
2018-12-20T06:08:28.424Z,98761.15
2018-12-20T06:10:55.872Z,98760.14
2018-12-20T06:13:23.412Z,98769.91
2018-12-20T06:15:50.745Z,98767.84
2018-12-20T06:18:18.084Z,98780.47
2018-12-20T06:20:45.373Z,98739.97
2018-12-20T06:23:12.587Z,98785.96
2018-12-20T06:25:40.246Z,98778.38
2018-12-20T06:28:07.335Z,98781.01
2018-12-20T06:30:34.458Z,98781.05
2018-12-20T06:33:01.536Z,98779.27
2018-12-20T06:35:28.840Z,98776.38
2018-12-20T06:37:56.564Z,98784.03
2018-12-20T06:40:23.716Z,98784.33
2018-12-20T06:42:50.825Z,98784.14
2018-12-20T06:45:17.901Z,98789.67
2018-12-20T06:47:45.000Z,98792.98
2018-12-20T06:50:12.035Z,98797.03
2018-12-20T06:52:39.181Z,98802.25
2018-12-20T06:55:06.332Z,98793.81
2018-12-20T06:57:33.486Z,98790.34
2018-12-20T07:00:00.612Z,98797.17
2018-12-20T07:02:27.782Z,98796.37
2018-12-20T07:04:54.961Z,98796.89
2018-12-20T07:07:22.051Z,98792.95
2018-12-20T07:09:49.849Z,98802.98
2018-12-20T07:12:17.071Z,98803.71
2018-12-20T07:14:44.251Z,98802.70
2018-12-20T07:17:12.508Z,98795.50
2018-12-20T07:19:39.678Z,98793.70
2018-12-20T07:22:06.871Z,98797.70
2018-12-20T07:24:33.959Z,98797.36
2018-12-20T07:27:01.151Z,98797.36
2018-12-20T07:29:28.217Z,98799.22
2018-12-20T07:31:55.450Z,98801.00
2018-12-20T07:34:22.504Z,98790.19
2018-12-20T07:36:49.595Z,98796.80
2018-12-20T07:39:16.897Z,98804.15
2018-12-20T07:41:43.951Z,98808.64
2018-12-20T07:44:12.177Z,98806.73
2018-12-20T07:46:39.356Z,98802.50
2018-12-20T07:49:06.387Z,98798.58
2018-12-20T07:51:33.592Z,98801.78
2018-12-20T07:54:00.679Z,98797.55
2018-12-20T07:56:27.828Z,98806.45
2018-12-20T07:58:55.071Z,98797.22
2018-12-20T08:01:22.480Z,98799.33
2018-12-20T08:03:49.744Z,98799.82
2018-12-20T08:06:16.858Z,98801.70
2018-12-20T08:08:45.962Z,98797.03
2018-12-20T08:11:13.096Z,98793.27
2018-12-20T08:13:40.393Z,98802.79
2018-12-20T08:16:08.156Z,98795.07
2018-12-20T08:18:35.399Z,98810.86
2018-12-20T08:21:03.500Z,98796.13
2018-12-20T08:23:30.972Z,98813.55
2018-12-20T08:25:58.216Z,98809.91
2018-12-20T08:28:25.948Z,98824.64
2018-12-20T08:30:53.771Z,98825.21
2018-12-20T08:33:21.748Z,98825.75
2018-12-20T08:35:48.934Z,98819.74
2018-12-20T08:38:16.084Z,98829.00
2018-12-20T08:40:43.312Z,98828.50
2018-12-20T08:43:11.107Z,98835.87
2018-12-20T08:45:38.316Z,98835.48
2018-12-20T08:48:05.412Z,98838.09
2018-12-20T08:50:32.500Z,98839.94
2018-12-20T08:52:59.608Z,98845.87
2018-12-20T08:55:26.729Z,98848.84
2018-12-20T08:57:53.892Z,98853.25
2018-12-20T09:00:21.145Z,98862.94
2018-12-20T09:02:48.289Z,98850.27
2018-12-20T09:05:15.372Z,98849.16
2018-12-20T09:07:42.499Z,98859.67
2018-12-20T09:10:09.717Z,98855.19
2018-12-20T09:12:36.952Z,98856.08
2018-12-20T09:15:04.190Z,98859.48
2018-12-20T09:17:31.866Z,98858.48
2018-12-20T09:19:58.967Z,98863.05
2018-12-20T09:22:26.068Z,98867.23
2018-12-20T09:24:53.275Z,98851.53
2018-12-20T09:27:20.746Z,98855.70
2018-12-20T09:29:48.026Z,98850.19
2018-12-20T09:32:15.096Z,98856.91
2018-12-20T09:34:42.153Z,98855.70
2018-12-20T09:37:09.242Z,98856.73
2018-12-20T09:39:36.372Z,98867.23
2018-12-20T09:42:03.552Z,98865.92
2018-12-20T09:44:31.131Z,98867.27
2018-12-20T09:47:11.386Z,98873.23
2018-12-20T09:49:33.121Z,98878.82
2018-12-20T09:52:00.252Z,98882.25
2018-12-20T09:54:27.472Z,98883.94
2018-12-20T09:56:54.592Z,98879.97
2018-12-20T09:59:21.899Z,98884.40
2018-12-20T10:01:49.341Z,98891.30
2018-12-20T10:04:16.571Z,98882.28
2018-12-20T10:06:43.812Z,98897.30
2018-12-20T10:09:11.032Z,98885.40
2018-12-20T10:11:38.357Z,98895.06
2018-12-20T10:14:05.521Z,98895.28
2018-12-20T10:16:33.097Z,98894.83
2018-12-20T10:19:00.232Z,98889.80
2018-12-20T10:21:27.496Z,98899.48
2018-12-20T10:23:54.735Z,98896.27
2018-12-20T10:26:21.815Z,98902.55
2018-12-20T10:28:48.875Z,98895.86
2018-12-20T10:31:15.992Z,98889.03
2018-12-20T10:33:43.077Z,98895.38
2018-12-20T10:36:10.334Z,98886.07
2018-12-20T10:38:38.177Z,98876.94
2018-12-20T10:41:05.890Z,98838.31
2018-12-20T10:43:33.902Z,98886.26
2018-12-20T10:46:01.007Z,98887.87
2018-12-20T10:48:28.092Z,98878.02
2018-12-20T10:50:55.340Z,98878.50
2018-12-20T10:53:22.450Z,98878.47
2018-12-20T10:55:49.607Z,98872.66
2018-12-20T10:58:16.705Z,98871.48
2018-12-20T11:00:49.542Z,98862.47
2018-12-20T11:03:22.662Z,98879.61
2018-12-20T11:05:55.382Z,98874.13
2018-12-20T11:08:23.743Z,98875.19
2018-12-20T11:10:55.857Z,98863.28
2018-12-20T11:13:23.983Z,98858.90
2018-12-20T11:15:51.213Z,98858.64
2018-12-20T11:18:18.327Z,98785.17
2018-12-20T11:20:45.444Z,98853.26
2018-12-20T11:23:12.583Z,98843.44
2018-12-20T11:25:39.942Z,98842.42
2018-12-20T11:28:07.027Z,98844.85
2018-12-20T11:30:34.111Z,98843.47
2018-12-20T11:33:01.370Z,98841.52
2018-12-20T11:35:29.080Z,98842.73
2018-12-20T11:37:56.144Z,98838.62
2018-12-20T11:40:23.725Z,98831.51
2018-12-20T11:42:50.866Z,98830.10
2018-12-20T11:45:18.065Z,98827.73
2018-12-20T11:47:45.974Z,98824.36
2018-12-20T11:50:13.560Z,98810.95
2018-12-20T11:52:42.510Z,98809.17
2018-12-20T11:55:09.837Z,98817.06
2018-12-20T11:57:36.975Z,98808.45
2018-12-20T12:00:06.339Z,98812.69
2018-12-20T12:02:33.654Z,98816.66
2018-12-20T12:05:01.721Z,98814.63
2018-12-20T12:07:29.855Z,98816.66
2018-12-20T12:09:56.979Z,98817.36
2018-12-20T12:12:24.179Z,98815.30
2018-12-20T12:14:51.338Z,98814.75
2018-12-20T12:17:18.483Z,98815.44
2018-12-20T12:19:45.759Z,98816.52
2018-12-20T12:22:12.895Z,98814.66
2018-12-20T12:24:40.048Z,98811.03
2018-12-20T12:27:07.239Z,98816.27
2018-12-20T12:29:34.418Z,98814.78
2018-12-20T12:32:01.607Z,98821.70
2018-12-20T12:34:29.738Z,98811.91
2018-12-20T12:36:57.056Z,98815.03
2018-12-20T12:39:25.060Z,98817.38
2018-12-20T12:41:52.255Z,98815.78
2018-12-20T12:44:21.023Z,98810.86
2018-12-20T12:46:48.089Z,98819.23
2018-12-20T12:49:15.361Z,98831.20
2018-12-20T12:51:43.816Z,98822.03
2018-12-20T12:54:11.858Z,98823.89
2018-12-20T12:56:39.069Z,98826.37
2018-12-20T12:59:06.196Z,98823.24
2018-12-20T13:01:33.395Z,98827.89
2018-12-20T13:04:00.669Z,98826.27
2018-12-20T13:06:27.787Z,98834.65
2018-12-20T13:08:54.899Z,98834.67
2018-12-20T13:11:22.029Z,98828.13
2018-12-20T13:13:49.374Z,98824.28
2018-12-20T13:16:17.244Z,98825.88
2018-12-20T13:18:44.612Z,98826.44
2018-12-20T13:21:11.797Z,98823.23
2018-12-20T13:23:38.917Z,98820.12
2018-12-20T13:26:06.057Z,98787.23
2018-12-20T13:28:33.152Z,98821.93
2018-12-20T13:31:00.297Z,98811.63
2018-12-20T13:33:27.412Z,98819.48
2018-12-20T13:35:54.524Z,98819.94
2018-12-20T13:38:21.661Z,98828.13
2018-12-20T13:40:48.885Z,98831.87
2018-12-20T13:43:16.008Z,98828.97
2018-12-20T13:45:43.148Z,98823.97
2018-12-20T13:48:10.371Z,98830.67
2018-12-20T13:50:37.548Z,98823.78
2018-12-20T13:53:04.749Z,98641.77
2018-12-20T13:55:31.891Z,98830.50
2018-12-20T13:57:59.099Z,98836.33
2018-12-20T14:00:26.514Z,98837.96
2018-12-20T14:02:53.758Z,98837.73
2018-12-20T14:05:21.176Z,98841.67
2018-12-20T14:07:48.492Z,98839.86
2018-12-20T14:10:15.707Z,98837.67
2018-12-20T14:12:44.267Z,98850.11
2018-12-20T14:15:12.448Z,98846.73
2018-12-20T14:17:39.587Z,98843.32
2018-12-20T14:20:07.307Z,98853.29
2018-12-20T14:22:34.888Z,98851.20
2018-12-20T14:25:03.328Z,98856.46
2018-12-20T14:27:31.040Z,98853.33
2018-12-20T14:29:58.232Z,98861.78
2018-12-20T14:32:25.352Z,98860.44
2018-12-20T14:34:54.441Z,98852.98
2018-12-20T14:37:21.686Z,98856.70
2018-12-20T14:39:49.551Z,98864.08
2018-12-20T14:42:16.890Z,98859.27
2018-12-20T14:44:44.209Z,98856.39
2018-12-20T14:47:11.355Z,98862.40
2018-12-20T14:49:38.459Z,98854.47
2018-12-20T14:52:05.688Z,98868.61
2018-12-20T14:54:32.859Z,98860.39
2018-12-20T14:57:00.036Z,98871.67
2018-12-20T14:59:27.171Z,98867.72
2018-12-20T15:01:54.284Z,98867.72
2018-12-20T15:04:22.188Z,98873.78
2018-12-20T15:06:50.196Z,98859.63
2018-12-20T15:09:17.263Z,98860.48
2018-12-20T15:11:44.700Z,98860.66
2018-12-20T15:14:12.879Z,98850.67
2018-12-20T15:16:40.540Z,98860.11
2018-12-20T15:19:07.762Z,98863.03
2018-12-20T15:21:34.926Z,98865.14
2018-12-20T15:24:02.051Z,98863.23
2018-12-20T15:26:29.244Z,98879.75
2018-12-20T15:28:56.466Z,98873.75
2018-12-20T15:31:24.127Z,98877.89
2018-12-20T15:33:51.677Z,98886.94
2018-12-20T15:36:18.811Z,98903.27
2018-12-20T15:38:45.920Z,98896.19
2018-12-20T15:41:13.220Z,98892.88
2018-12-20T15:43:40.323Z,98892.84
2018-12-20T15:46:07.819Z,98894.20
2018-12-20T15:48:35.631Z,98892.08
2018-12-20T15:51:02.836Z,98890.51
2018-12-20T15:53:30.049Z,98898.08
2018-12-20T15:55:57.344Z,98897.82
2018-12-20T15:58:24.698Z,98903.05
2018-12-20T16:00:52.131Z,98903.02
2018-12-20T16:03:20.455Z,98907.83
2018-12-20T16:05:48.398Z,98907.12
2018-12-20T16:08:15.655Z,98904.72
2018-12-20T16:10:42.876Z,98902.02
2018-12-20T16:13:10.222Z,98917.04
2018-12-20T16:15:37.382Z,98909.28
2018-12-20T16:18:04.521Z,98902.31
2018-12-20T16:20:31.664Z,98904.98
2018-12-20T16:22:58.731Z,98915.72
2018-12-20T16:25:25.864Z,98915.85
2018-12-20T16:27:53.233Z,98910.05
2018-12-20T16:30:20.523Z,98915.76
2018-12-20T16:32:47.785Z,98917.30
2018-12-20T16:35:14.895Z,98922.84
2018-12-20T16:37:42.065Z,98929.49
2018-12-20T16:40:09.252Z,98938.19
2018-12-20T16:42:36.517Z,98938.95
2018-12-20T16:45:04.440Z,98941.37
2018-12-20T16:47:31.593Z,98945.53
2018-12-20T16:49:58.756Z,98938.70
2018-12-20T16:52:25.904Z,98943.89
2018-12-20T16:54:53.108Z,98955.19
2018-12-20T16:57:20.750Z,98945.17
2018-12-20T16:59:47.775Z,98955.19
2018-12-20T17:02:15.025Z,98953.69
2018-12-20T17:04:42.194Z,98958.11
2018-12-20T17:07:09.336Z,98952.52
2018-12-20T17:09:36.593Z,98949.30
2018-12-20T17:12:03.675Z,98955.19
2018-12-20T17:14:31.807Z,98950.47
2018-12-20T17:16:58.904Z,98948.94
2018-12-20T17:19:26.169Z,98956.47
2018-12-20T17:21:53.399Z,98954.92
2018-12-20T17:24:20.730Z,98956.79
2018-12-20T17:26:47.859Z,98961.52
2018-12-20T17:29:14.993Z,98954.13
2018-12-20T17:31:42.199Z,98951.72
2018-12-20T17:34:09.434Z,98955.52
2018-12-20T17:36:36.928Z,98957.02
2018-12-20T17:44:05.663Z,98962.09
2018-12-20T17:46:32.868Z,98958.28
2018-12-20T17:48:59.956Z,98947.26
2018-12-20T17:51:27.114Z,98955.75
2018-12-20T17:53:54.210Z,98861.85
2018-12-20T17:56:21.333Z,98957.24
2018-12-20T17:58:48.605Z,98966.52
2018-12-20T18:01:15.756Z,98966.73
2018-12-20T18:03:42.854Z,98973.72
2018-12-20T18:06:09.997Z,98964.52
2018-12-20T18:08:37.455Z,98973.51
2018-12-20T18:11:04.611Z,98985.38
2018-12-20T18:13:32.781Z,98979.73
2018-12-20T18:15:59.924Z,98971.04
2018-12-20T18:18:27.716Z,98590.27
2018-12-20T18:20:54.846Z,98956.63
2018-12-20T18:23:22.028Z,98969.02
2018-12-20T18:25:49.147Z,98967.66
2018-12-20T18:28:16.637Z,98969.96
2018-12-20T18:30:43.738Z,98961.91
2018-12-20T18:33:10.999Z,98927.03
2018-12-20T18:35:38.660Z,98966.73
2018-12-20T18:38:06.053Z,98967.03
2018-12-20T18:40:33.212Z,98972.37
2018-12-20T18:43:01.765Z,98968.31
2018-12-20T18:45:29.168Z,98972.33
2018-12-20T18:47:56.356Z,98972.37
2018-12-20T18:50:23.455Z,98966.19
2018-12-20T18:52:50.774Z,98988.19
2018-12-20T18:55:17.997Z,98977.63
2018-12-20T18:57:45.148Z,98971.83
2018-12-20T19:00:12.272Z,98980.01
2018-12-20T19:02:39.537Z,98987.27
2018-12-20T19:05:07.681Z,98984.67
2018-12-20T19:07:35.001Z,98993.53
2018-12-20T19:10:02.190Z,98991.25
2018-12-20T19:12:30.056Z,98989.67
2018-12-20T19:14:57.845Z,98987.05
2018-12-20T19:17:24.961Z,98987.55
2018-12-20T19:19:56.187Z,98987.22
2018-12-20T19:22:21.349Z,98999.17
2018-12-20T19:24:49.259Z,98997.65
2018-12-20T19:27:16.476Z,98998.20
2018-12-20T19:29:43.695Z,98993.84
2018-12-20T19:32:10.775Z,98989.80
2018-12-20T19:34:37.929Z,98998.16
2018-12-20T19:37:05.077Z,99005.11
2018-12-20T19:39:32.235Z,99003.75
2018-12-20T19:42:16.089Z,99011.56
2018-12-20T19:44:43.913Z,99001.94
2018-12-20T19:47:11.115Z,98989.20
2018-12-20T19:49:38.326Z,98995.27
2018-12-20T19:52:05.524Z,98994.72
2018-12-20T19:54:32.607Z,98986.37
2018-12-20T19:56:59.875Z,98987.38
2018-12-20T19:59:27.363Z,98985.27
2018-12-20T20:01:54.534Z,98989.29
2018-12-20T20:04:21.720Z,98987.47
2018-12-20T20:06:48.931Z,98981.53
2018-12-20T20:09:16.272Z,98988.36
2018-12-20T20:11:44.187Z,98984.42
2018-12-20T20:14:11.738Z,98985.91
2018-12-20T20:16:38.888Z,98982.42
2018-12-20T20:19:06.032Z,98990.78
2018-12-20T20:21:33.372Z,99002.45
2018-12-20T20:24:00.619Z,98992.27
2018-12-20T20:26:28.375Z,98982.34
2018-12-20T20:28:55.533Z,98992.39
2018-12-20T20:31:22.775Z,98989.63
2018-12-20T20:33:49.978Z,98999.05
2018-12-20T20:36:17.217Z,98994.88
2018-12-20T20:38:44.392Z,98992.75
2018-12-20T20:41:12.303Z,98981.75
2018-12-20T20:43:39.456Z,98989.90
2018-12-20T20:46:06.591Z,98990.34
2018-12-20T20:48:33.745Z,98986.98
2018-12-20T20:51:00.859Z,98995.71
2018-12-20T20:53:27.938Z,98987.02
2018-12-20T20:55:55.084Z,98998.02
2018-12-20T20:58:22.231Z,98985.00
2018-12-20T21:00:49.429Z,98994.87
2018-12-20T21:03:16.503Z,98985.66
2018-12-20T21:05:43.756Z,98994.61
2018-12-20T21:08:11.609Z,99005.47
2018-12-20T21:10:38.720Z,98994.94
2018-12-20T21:13:05.896Z,98998.02
2018-12-20T21:15:34.287Z,98999.91
2018-12-20T21:18:01.492Z,98994.98
2018-12-20T21:20:30.818Z,98986.50
2018-12-20T21:22:57.800Z,98993.30
2018-12-20T21:25:24.870Z,98950.91
2018-12-20T21:27:51.999Z,98992.34
2018-12-20T21:30:19.123Z,98998.34
2018-12-20T21:32:46.747Z,98978.35
2018-12-20T21:35:13.877Z,98989.61
2018-12-20T21:37:40.983Z,98973.52
2018-12-20T21:40:08.136Z,98989.39
2018-12-20T21:42:35.419Z,98986.50
2018-12-20T21:45:02.561Z,98987.08
2018-12-20T21:47:29.976Z,98989.28
2018-12-20T21:49:57.084Z,98995.93
2018-12-20T21:52:25.257Z,98990.41
2018-12-20T21:54:52.328Z,98989.89
2018-12-20T21:57:21.453Z,98993.33
2018-12-20T21:59:48.757Z,98993.88
2018-12-20T22:02:15.993Z,98997.02
2018-12-20T22:04:43.089Z,98990.89
2018-12-20T22:07:10.188Z,98987.96
2018-12-20T22:09:37.292Z,98998.85
2018-12-20T22:12:04.460Z,98990.13
2018-12-20T22:14:31.565Z,98989.45
2018-12-20T22:16:58.670Z,98991.22
2018-12-20T22:19:25.921Z,98998.67
2018-12-20T22:21:52.968Z,98994.97
2018-12-20T22:24:20.207Z,98996.44
2018-12-20T22:26:47.323Z,98996.48
2018-12-20T22:29:14.368Z,99009.92
2018-12-20T22:31:41.989Z,99013.55
2018-12-20T22:34:09.093Z,99015.73
2018-12-20T22:36:36.206Z,99012.89
2018-12-20T22:39:04.415Z,99006.82
2018-12-20T22:41:31.616Z,99013.76
2018-12-20T22:43:58.937Z,99017.05
2018-12-20T22:46:26.112Z,99025.61
2018-12-20T22:48:53.394Z,99021.33
2018-12-20T22:51:20.493Z,99023.93
2018-12-20T22:53:47.610Z,99011.02
2018-12-20T22:56:14.844Z,99009.23
2018-12-20T22:58:42.644Z,99011.57
2018-12-20T23:01:09.860Z,98994.88
2018-12-20T23:03:37.271Z,98993.77
2018-12-20T23:11:02.703Z,98991.77
2018-12-20T23:13:30.185Z,98986.31
2018-12-20T23:15:57.303Z,98981.97
2018-12-20T23:18:24.388Z,98975.72
2018-12-20T23:20:51.480Z,98974.17
2018-12-20T23:23:18.714Z,98969.74
2018-12-20T23:25:45.856Z,98972.60
2018-12-20T23:28:12.976Z,98979.73
2018-12-20T23:30:40.099Z,98975.62
2018-12-20T23:33:07.256Z,98957.94
2018-12-20T23:35:34.584Z,98963.32
2018-12-20T23:38:01.737Z,98970.58
2018-12-20T23:40:28.870Z,98965.58
2018-12-20T23:42:56.023Z,98969.23
2018-12-20T23:45:23.170Z,98964.48
2018-12-20T23:47:50.223Z,98959.60
2018-12-20T23:50:17.532Z,98889.38
2018-12-20T23:52:44.681Z,98964.32
2018-12-20T23:55:11.771Z,98965.06
2018-12-20T23:57:38.804Z,98971.00
